sensor_id;sensor_type;location;lat;lon;timestamp;temperature;humidity
6443;DHT22;3254;47.372;8.512;2023-02-28T00:02:21;-0.40;1.00
6443;DHT22;3254;47.372;8.512;2023-02-28T00:04:47;-0.50;1.00
6443;DHT22;3254;47.372;8.512;2023-02-28T00:07:18;-0.50;1.00
6443;DHT22;3254;47.372;8.512;2023-02-28T00:09:44;-0.50;1.00
6443;DHT22;3254;47.372;8.512;2023-02-28T00:12:09;-0.40;1.00
6443;DHT22;3254;47.372;8.512;2023-02-28T00:14:36;-0.50;1.00
6443;DHT22;3254;47.372;8.512;2023-02-28T00:17:01;-0.50;1.00
6443;DHT22;3254;47.372;8.512;2023-02-28T00:19:27;-0.50;1.00
6443;DHT22;3254;47.372;8.512;2023-02-28T00:21:53;-0.50;1.00
6443;DHT22;3254;47.372;8.512;2023-02-28T00:24:18;-0.40;1.00
6443;DHT22;3254;47.372;8.512;2023-02-28T00:26:44;-0.40;1.00
6443;DHT22;3254;47.372;8.512;2023-02-28T00:29:10;-0.40;1.00
6443;DHT22;3254;47.372;8.512;2023-02-28T00:31:35;-0.30;1.00
6443;DHT22;3254;47.372;8.512;2023-02-28T00:34:01;-0.30;1.00
6443;DHT22;3254;47.372;8.512;2023-02-28T00:36:26;-0.40;1.00
6443;DHT22;3254;47.372;8.512;2023-02-28T00:38:52;-0.40;1.00
6443;DHT22;3254;47.372;8.512;2023-02-28T00:41:17;-0.40;1.00
6443;DHT22;3254;47.372;8.512;2023-02-28T00:43:43;-0.40;1.00
6443;DHT22;3254;47.372;8.512;2023-02-28T00:46:09;-0.50;1.00
6443;DHT22;3254;47.372;8.512;2023-02-28T00:48:35;-0.40;1.00
6443;DHT22;3254;47.372;8.512;2023-02-28T00:51:01;-0.40;1.00
6443;DHT22;3254;47.372;8.512;2023-02-28T00:53:27;-0.40;1.00
6443;DHT22;3254;47.372;8.512;2023-02-28T00:55:53;-0.40;1.00
6443;DHT22;3254;47.372;8.512;2023-02-28T00:58:18;-0.50;1.00
6443;DHT22;3254;47.372;8.512;2023-02-28T01:00:44;-0.40;1.00
6443;DHT22;3254;47.372;8.512;2023-02-28T01:03:15;-0.50;1.00
6443;DHT22;3254;47.372;8.512;2023-02-28T01:05:40;-0.50;1.00
6443;DHT22;3254;47.372;8.512;2023-02-28T01:08:06;-0.50;1.00
6443;DHT22;3254;47.372;8.512;2023-02-28T01:10:32;-0.40;1.00
6443;DHT22;3254;47.372;8.512;2023-02-28T01:12:58;-0.40;1.00
6443;DHT22;3254;47.372;8.512;2023-02-28T01:15:23;-0.40;1.00
6443;DHT22;3254;47.372;8.512;2023-02-28T01:17:49;-0.40;1.00
6443;DHT22;3254;47.372;8.512;2023-02-28T01:20:14;-0.30;1.00
6443;DHT22;3254;47.372;8.512;2023-02-28T01:22:40;-0.40;1.00
6443;DHT22;3254;47.372;8.512;2023-02-28T01:25:06;-0.40;1.00
6443;DHT22;3254;47.372;8.512;2023-02-28T01:27:33;-0.30;1.00
6443;DHT22;3254;47.372;8.512;2023-02-28T01:29:58;-0.30;1.00
6443;DHT22;3254;47.372;8.512;2023-02-28T01:32:24;-0.30;1.00
6443;DHT22;3254;47.372;8.512;2023-02-28T01:34:49;-0.40;1.00
6443;DHT22;3254;47.372;8.512;2023-02-28T01:37:15;-0.40;1.00
6443;DHT22;3254;47.372;8.512;2023-02-28T01:39:41;-0.40;1.00
6443;DHT22;3254;47.372;8.512;2023-02-28T01:42:09;-0.40;1.00
6443;DHT22;3254;47.372;8.512;2023-02-28T01:47:19;-0.50;1.00
6443;DHT22;3254;47.372;8.512;2023-02-28T01:49:45;-0.50;1.00
6443;DHT22;3254;47.372;8.512;2023-02-28T01:52:12;-0.40;1.00
6443;DHT22;3254;47.372;8.512;2023-02-28T01:54:46;-0.40;1.00
6443;DHT22;3254;47.372;8.512;2023-02-28T01:57:16;-0.40;1.00
6443;DHT22;3254;47.372;8.512;2023-02-28T01:59:45;-0.40;1.00
6443;DHT22;3254;47.372;8.512;2023-02-28T02:02:15;-0.40;1.00
6443;DHT22;3254;47.372;8.512;2023-02-28T02:07:33;-0.40;1.00
6443;DHT22;3254;47.372;8.512;2023-02-28T02:15:37;-0.40;1.00
6443;DHT22;3254;47.372;8.512;2023-02-28T02:18:22;-0.40;1.00
6443;DHT22;3254;47.372;8.512;2023-02-28T02:24:03;-0.40;1.00
6443;DHT22;3254;47.372;8.512;2023-02-28T02:32:22;-0.40;1.00
6443;DHT22;3254;47.372;8.512;2023-02-28T02:37:43;-0.40;1.00
6443;DHT22;3254;47.372;8.512;2023-02-28T02:40:50;-0.40;1.00
6443;DHT22;3254;47.372;8.512;2023-02-28T02:43:25;-0.40;1.00
6443;DHT22;3254;47.372;8.512;2023-02-28T02:46:04;-0.40;1.00
6443;DHT22;3254;47.372;8.512;2023-02-28T02:48:33;-0.40;1.00
6443;DHT22;3254;47.372;8.512;2023-02-28T02:51:03;-0.40;1.00
6443;DHT22;3254;47.372;8.512;2023-02-28T02:53:40;-0.50;1.00
6443;DHT22;3254;47.372;8.512;2023-02-28T02:56:07;-0.50;1.00
6443;DHT22;3254;47.372;8.512;2023-02-28T02:58:37;-0.50;1.00
6443;DHT22;3254;47.372;8.512;2023-02-28T03:01:11;-0.40;1.00
6443;DHT22;3254;47.372;8.512;2023-02-28T03:03:37;-0.40;1.00
6443;DHT22;3254;47.372;8.512;2023-02-28T03:06:03;-0.40;1.00
6443;DHT22;3254;47.372;8.512;2023-02-28T03:08:34;-0.40;1.00
6443;DHT22;3254;47.372;8.512;2023-02-28T03:11:02;-0.40;1.00
6443;DHT22;3254;47.372;8.512;2023-02-28T03:25:03;-0.40;1.00
6443;DHT22;3254;47.372;8.512;2023-02-28T03:27:54;-0.40;1.00
6443;DHT22;3254;47.372;8.512;2023-02-28T03:33:30;-0.50;1.00
6443;DHT22;3254;47.372;8.512;2023-02-28T03:36:05;-0.50;1.00
6443;DHT22;3254;47.372;8.512;2023-02-28T03:38:38;-0.50;1.00
6443;DHT22;3254;47.372;8.512;2023-02-28T03:41:10;-0.50;1.00
6443;DHT22;3254;47.372;8.512;2023-02-28T03:43:43;-0.50;1.00
6443;DHT22;3254;47.372;8.512;2023-02-28T03:46:13;-0.50;1.00
6443;DHT22;3254;47.372;8.512;2023-02-28T03:48:45;-0.50;1.00
6443;DHT22;3254;47.372;8.512;2023-02-28T03:51:17;-0.50;1.00
6443;DHT22;3254;47.372;8.512;2023-02-28T03:53:51;-0.50;1.00
6443;DHT22;3254;47.372;8.512;2023-02-28T03:56:31;-0.40;1.00
6443;DHT22;3254;47.372;8.512;2023-02-28T04:01:41;-0.50;1.00
6443;DHT22;3254;47.372;8.512;2023-02-28T04:04:09;-0.50;1.00
6443;DHT22;3254;47.372;8.512;2023-02-28T04:06:35;-0.40;1.00
6443;DHT22;3254;47.372;8.512;2023-02-28T04:09:02;-0.50;1.00
6443;DHT22;3254;47.372;8.512;2023-02-28T04:11:36;-0.50;1.00
6443;DHT22;3254;47.372;8.512;2023-02-28T04:14:03;-0.50;1.00
6443;DHT22;3254;47.372;8.512;2023-02-28T04:16:30;-0.50;1.00
6443;DHT22;3254;47.372;8.512;2023-02-28T04:18:56;-0.50;1.00
6443;DHT22;3254;47.372;8.512;2023-02-28T04:21:49;-0.50;1.00
6443;DHT22;3254;47.372;8.512;2023-02-28T04:24:19;-0.40;1.00
6443;DHT22;3254;47.372;8.512;2023-02-28T04:26:52;-0.50;1.00
6443;DHT22;3254;47.372;8.512;2023-02-28T04:29:23;-0.50;1.00
6443;DHT22;3254;47.372;8.512;2023-02-28T04:31:49;-0.50;1.00
6443;DHT22;3254;47.372;8.512;2023-02-28T04:34:15;-0.50;1.00
6443;DHT22;3254;47.372;8.512;2023-02-28T04:36:41;-0.40;1.00
6443;DHT22;3254;47.372;8.512;2023-02-28T04:39:06;-0.50;1.00
6443;DHT22;3254;47.372;8.512;2023-02-28T04:41:32;-0.50;1.00
6443;DHT22;3254;47.372;8.512;2023-02-28T04:43:57;-0.50;1.00
6443;DHT22;3254;47.372;8.512;2023-02-28T04:46:23;-0.50;1.00
6443;DHT22;3254;47.372;8.512;2023-02-28T04:48:49;-0.50;1.00
6443;DHT22;3254;47.372;8.512;2023-02-28T04:51:16;-0.50;1.00
6443;DHT22;3254;47.372;8.512;2023-02-28T04:53:43;-0.50;1.00
6443;DHT22;3254;47.372;8.512;2023-02-28T04:56:12;-0.50;1.00
6443;DHT22;3254;47.372;8.512;2023-02-28T04:58:39;-0.60;1.00
6443;DHT22;3254;47.372;8.512;2023-02-28T05:03:43;-0.50;1.00
6443;DHT22;3254;47.372;8.512;2023-02-28T05:06:10;-0.50;1.00
6443;DHT22;3254;47.372;8.512;2023-02-28T05:08:36;-0.50;1.00
6443;DHT22;3254;47.372;8.512;2023-02-28T05:11:01;-0.50;1.00
6443;DHT22;3254;47.372;8.512;2023-02-28T05:13:28;-0.50;1.00
6443;DHT22;3254;47.372;8.512;2023-02-28T05:15:54;-0.60;1.00
6443;DHT22;3254;47.372;8.512;2023-02-28T05:18:19;-0.50;1.00
6443;DHT22;3254;47.372;8.512;2023-02-28T05:20:45;-0.50;1.00
6443;DHT22;3254;47.372;8.512;2023-02-28T05:23:12;-0.60;1.00
6443;DHT22;3254;47.372;8.512;2023-02-28T05:25:39;-0.60;1.00
6443;DHT22;3254;47.372;8.512;2023-02-28T05:28:05;-0.50;1.00
6443;DHT22;3254;47.372;8.512;2023-02-28T05:30:30;-0.50;1.00
6443;DHT22;3254;47.372;8.512;2023-02-28T05:32:57;-0.50;1.00
6443;DHT22;3254;47.372;8.512;2023-02-28T05:35:23;-0.50;1.00
6443;DHT22;3254;47.372;8.512;2023-02-28T05:37:49;-0.50;1.00
6443;DHT22;3254;47.372;8.512;2023-02-28T05:40:15;-0.50;1.00
6443;DHT22;3254;47.372;8.512;2023-02-28T05:42:40;-0.60;1.00
6443;DHT22;3254;47.372;8.512;2023-02-28T05:45:07;-0.50;1.00
6443;DHT22;3254;47.372;8.512;2023-02-28T05:47:33;-0.50;1.00
6443;DHT22;3254;47.372;8.512;2023-02-28T05:49:59;-0.50;1.00
6443;DHT22;3254;47.372;8.512;2023-02-28T05:52:25;-0.50;1.00
6443;DHT22;3254;47.372;8.512;2023-02-28T05:54:51;-0.50;1.00
6443;DHT22;3254;47.372;8.512;2023-02-28T05:57:16;-0.50;1.00
6443;DHT22;3254;47.372;8.512;2023-02-28T05:59:42;-0.50;1.00
6443;DHT22;3254;47.372;8.512;2023-02-28T06:02:12;-0.50;1.00
6443;DHT22;3254;47.372;8.512;2023-02-28T06:04:39;-0.50;1.00
6443;DHT22;3254;47.372;8.512;2023-02-28T06:07:06;-0.50;1.00
6443;DHT22;3254;47.372;8.512;2023-02-28T06:09:31;-0.50;1.00
6443;DHT22;3254;47.372;8.512;2023-02-28T06:11:58;-0.50;1.00
6443;DHT22;3254;47.372;8.512;2023-02-28T06:14:24;-0.50;1.00
6443;DHT22;3254;47.372;8.512;2023-02-28T06:16:50;-0.50;1.00
6443;DHT22;3254;47.372;8.512;2023-02-28T06:19:15;-0.50;1.00
6443;DHT22;3254;47.372;8.512;2023-02-28T06:21:41;-0.50;1.00
6443;DHT22;3254;47.372;8.512;2023-02-28T06:24:07;-0.50;1.00
6443;DHT22;3254;47.372;8.512;2023-02-28T06:26:33;-0.50;1.00
6443;DHT22;3254;47.372;8.512;2023-02-28T06:28:59;-0.40;1.00
6443;DHT22;3254;47.372;8.512;2023-02-28T06:31:26;-0.50;1.00
6443;DHT22;3254;47.372;8.512;2023-02-28T06:33:54;-0.50;1.00
6443;DHT22;3254;47.372;8.512;2023-02-28T06:36:20;-0.50;1.00
6443;DHT22;3254;47.372;8.512;2023-02-28T06:38:46;-0.50;1.00
6443;DHT22;3254;47.372;8.512;2023-02-28T06:41:17;-0.50;1.00
6443;DHT22;3254;47.372;8.512;2023-02-28T06:43:43;-0.50;1.00
6443;DHT22;3254;47.372;8.512;2023-02-28T06:46:12;-0.50;1.00
6443;DHT22;3254;47.372;8.512;2023-02-28T06:48:39;-0.50;1.00
6443;DHT22;3254;47.372;8.512;2023-02-28T06:51:07;-0.50;1.00
6443;DHT22;3254;47.372;8.512;2023-02-28T06:53:33;-0.50;1.00
6443;DHT22;3254;47.372;8.512;2023-02-28T06:55:59;-0.50;1.00
6443;DHT22;3254;47.372;8.512;2023-02-28T06:58:25;-0.40;1.00
6443;DHT22;3254;47.372;8.512;2023-02-28T07:00:51;-0.40;1.00
6443;DHT22;3254;47.372;8.512;2023-02-28T07:03:17;-0.40;1.00
6443;DHT22;3254;47.372;8.512;2023-02-28T07:05:44;-0.40;1.00
6443;DHT22;3254;47.372;8.512;2023-02-28T07:08:10;-0.30;1.00
6443;DHT22;3254;47.372;8.512;2023-02-28T07:10:39;-0.20;1.00
6443;DHT22;3254;47.372;8.512;2023-02-28T07:13:06;-0.20;1.00
6443;DHT22;3254;47.372;8.512;2023-02-28T07:15:31;-0.20;1.00
6443;DHT22;3254;47.372;8.512;2023-02-28T07:17:57;-0.20;1.00
6443;DHT22;3254;47.372;8.512;2023-02-28T07:20:23;-0.20;1.00
6443;DHT22;3254;47.372;8.512;2023-02-28T07:22:49;-0.20;1.00
6443;DHT22;3254;47.372;8.512;2023-02-28T07:25:26;-0.20;1.00
6443;DHT22;3254;47.372;8.512;2023-02-28T07:27:53;-0.10;1.00
6443;DHT22;3254;47.372;8.512;2023-02-28T07:30:19;-0.10;1.00
6443;DHT22;3254;47.372;8.512;2023-02-28T07:32:45;0.00;1.00
6443;DHT22;3254;47.372;8.512;2023-02-28T07:35:10;0.00;1.00
6443;DHT22;3254;47.372;8.512;2023-02-28T07:37:36;0.00;1.00
6443;DHT22;3254;47.372;8.512;2023-02-28T07:40:10;0.00;1.00
6443;DHT22;3254;47.372;8.512;2023-02-28T07:42:40;0.10;1.00
6443;DHT22;3254;47.372;8.512;2023-02-28T07:45:07;0.20;1.00
6443;DHT22;3254;47.372;8.512;2023-02-28T07:47:33;0.20;1.00
6443;DHT22;3254;47.372;8.512;2023-02-28T07:49:59;0.20;1.00
6443;DHT22;3254;47.372;8.512;2023-02-28T07:52:24;0.20;1.00
6443;DHT22;3254;47.372;8.512;2023-02-28T07:54:51;0.30;1.00
6443;DHT22;3254;47.372;8.512;2023-02-28T07:57:16;0.30;1.00
6443;DHT22;3254;47.372;8.512;2023-02-28T07:59:42;0.30;1.00
6443;DHT22;3254;47.372;8.512;2023-02-28T08:02:14;0.30;1.00
6443;DHT22;3254;47.372;8.512;2023-02-28T08:04:39;0.50;1.00
6443;DHT22;3254;47.372;8.512;2023-02-28T08:07:05;0.40;1.00
6443;DHT22;3254;47.372;8.512;2023-02-28T08:09:31;0.50;1.00
6443;DHT22;3254;47.372;8.512;2023-02-28T08:11:56;0.50;1.00
6443;DHT22;3254;47.372;8.512;2023-02-28T08:14:22;0.70;1.00
6443;DHT22;3254;47.372;8.512;2023-02-28T08:16:48;0.80;1.00
6443;DHT22;3254;47.372;8.512;2023-02-28T08:19:13;0.90;1.00
6443;DHT22;3254;47.372;8.512;2023-02-28T08:21:39;1.00;1.00
6443;DHT22;3254;47.372;8.512;2023-02-28T08:24:05;1.00;1.00
6443;DHT22;3254;47.372;8.512;2023-02-28T08:26:31;1.10;1.00
6443;DHT22;3254;47.372;8.512;2023-02-28T08:28:57;1.20;1.00
6443;DHT22;3254;47.372;8.512;2023-02-28T08:31:22;1.20;1.00
6443;DHT22;3254;47.372;8.512;2023-02-28T08:33:48;1.10;1.00
6443;DHT22;3254;47.372;8.512;2023-02-28T08:36:16;1.20;1.00
6443;DHT22;3254;47.372;8.512;2023-02-28T08:38:42;1.30;1.00
6443;DHT22;3254;47.372;8.512;2023-02-28T08:41:10;1.40;1.00
6443;DHT22;3254;47.372;8.512;2023-02-28T08:43:36;1.40;1.00
6443;DHT22;3254;47.372;8.512;2023-02-28T08:46:02;1.40;1.00
6443;DHT22;3254;47.372;8.512;2023-02-28T08:48:30;1.30;1.00
6443;DHT22;3254;47.372;8.512;2023-02-28T08:50:59;1.20;1.00
6443;DHT22;3254;47.372;8.512;2023-02-28T08:53:25;1.30;1.00
6443;DHT22;3254;47.372;8.512;2023-02-28T08:56:02;1.20;1.00
6443;DHT22;3254;47.372;8.512;2023-02-28T08:58:28;1.20;1.00
6443;DHT22;3254;47.372;8.512;2023-02-28T09:00:54;1.30;1.00
6443;DHT22;3254;47.372;8.512;2023-02-28T09:03:20;1.40;1.00
6443;DHT22;3254;47.372;8.512;2023-02-28T09:08:38;1.60;1.00
6443;DHT22;3254;47.372;8.512;2023-02-28T09:11:05;1.70;1.00
6443;DHT22;3254;47.372;8.512;2023-02-28T09:13:30;1.60;1.00
6443;DHT22;3254;47.372;8.512;2023-02-28T09:15:58;1.80;1.00
6443;DHT22;3254;47.372;8.512;2023-02-28T09:18:25;1.80;1.00
6443;DHT22;3254;47.372;8.512;2023-02-28T09:20:51;1.80;1.00
6443;DHT22;3254;47.372;8.512;2023-02-28T09:23:17;1.90;1.00
6443;DHT22;3254;47.372;8.512;2023-02-28T09:25:48;2.00;1.00
6443;DHT22;3254;47.372;8.512;2023-02-28T09:28:14;1.80;1.00
6443;DHT22;3254;47.372;8.512;2023-02-28T09:30:48;1.70;1.00
6443;DHT22;3254;47.372;8.512;2023-02-28T09:33:15;1.90;1.00
6443;DHT22;3254;47.372;8.512;2023-02-28T09:35:41;2.00;1.00
6443;DHT22;3254;47.372;8.512;2023-02-28T09:38:08;2.10;1.00
6443;DHT22;3254;47.372;8.512;2023-02-28T09:43:22;2.20;1.00
6443;DHT22;3254;47.372;8.512;2023-02-28T09:45:54;2.10;1.00
6443;DHT22;3254;47.372;8.512;2023-02-28T09:48:29;2.20;1.00
6443;DHT22;3254;47.372;8.512;2023-02-28T09:51:09;2.30;1.00
6443;DHT22;3254;47.372;8.512;2023-02-28T09:53:38;2.50;1.00
6443;DHT22;3254;47.372;8.512;2023-02-28T09:56:09;2.40;1.00
6443;DHT22;3254;47.372;8.512;2023-02-28T09:58:53;2.30;1.00
6443;DHT22;3254;47.372;8.512;2023-02-28T10:01:39;2.40;1.00
6443;DHT22;3254;47.372;8.512;2023-02-28T10:04:47;2.40;1.00
6443;DHT22;3254;47.372;8.512;2023-02-28T10:09:53;2.80;1.00
6443;DHT22;3254;47.372;8.512;2023-02-28T10:12:20;2.70;1.00
6443;DHT22;3254;47.372;8.512;2023-02-28T10:14:50;2.80;1.00
6443;DHT22;3254;47.372;8.512;2023-02-28T10:17:23;3.00;1.00
6443;DHT22;3254;47.372;8.512;2023-02-28T10:20:00;3.20;1.00
6443;DHT22;3254;47.372;8.512;2023-02-28T10:22:31;3.50;1.00
6443;DHT22;3254;47.372;8.512;2023-02-28T10:24:59;3.20;1.00
6443;DHT22;3254;47.372;8.512;2023-02-28T10:27:32;3.30;1.00
6443;DHT22;3254;47.372;8.512;2023-02-28T10:30:00;3.60;1.00
6443;DHT22;3254;47.372;8.512;2023-02-28T10:32:30;3.80;1.00
6443;DHT22;3254;47.372;8.512;2023-02-28T10:37:30;3.70;1.00
6443;DHT22;3254;47.372;8.512;2023-02-28T10:39:56;3.80;1.00
6443;DHT22;3254;47.372;8.512;2023-02-28T10:42:26;3.80;1.00
6443;DHT22;3254;47.372;8.512;2023-02-28T10:45:14;4.00;1.00
6443;DHT22;3254;47.372;8.512;2023-02-28T10:48:41;4.30;1.00
6443;DHT22;3254;47.372;8.512;2023-02-28T10:58:53;4.20;1.00
6443;DHT22;3254;47.372;8.512;2023-02-28T11:01:21;4.60;1.00
6443;DHT22;3254;47.372;8.512;2023-02-28T11:03:47;4.80;1.00
6443;DHT22;3254;47.372;8.512;2023-02-28T11:06:17;4.60;1.00
6443;DHT22;3254;47.372;8.512;2023-02-28T11:08:52;4.10;1.00
6443;DHT22;3254;47.372;8.512;2023-02-28T11:11:18;4.00;1.00
6443;DHT22;3254;47.372;8.512;2023-02-28T11:13:46;4.20;1.00
6443;DHT22;3254;47.372;8.512;2023-02-28T11:16:14;4.40;1.00
6443;DHT22;3254;47.372;8.512;2023-02-28T11:18:56;4.00;1.00
6443;DHT22;3254;47.372;8.512;2023-02-28T11:21:36;4.00;1.00
6443;DHT22;3254;47.372;8.512;2023-02-28T11:24:16;3.90;1.00
6443;DHT22;3254;47.372;8.512;2023-02-28T11:26:47;3.90;1.00
6443;DHT22;3254;47.372;8.512;2023-02-28T11:29:26;4.00;1.00
6443;DHT22;3254;47.372;8.512;2023-02-28T11:32:22;4.00;1.00
6443;DHT22;3254;47.372;8.512;2023-02-28T11:35:13;4.00;1.00
6443;DHT22;3254;47.372;8.512;2023-02-28T11:37:41;3.90;1.00
6443;DHT22;3254;47.372;8.512;2023-02-28T11:40:15;4.20;1.00
6443;DHT22;3254;47.372;8.512;2023-02-28T11:45:55;4.00;1.00
6443;DHT22;3254;47.372;8.512;2023-02-28T12:07:51;3.30;1.00
6443;DHT22;3254;47.372;8.512;2023-02-28T12:10:35;3.40;1.00
6443;DHT22;3254;47.372;8.512;2023-02-28T12:15:46;3.70;1.00
6443;DHT22;3254;47.372;8.512;2023-02-28T12:18:24;3.40;1.00
6443;DHT22;3254;47.372;8.512;2023-02-28T12:21:14;3.50;1.00
6443;DHT22;3254;47.372;8.512;2023-02-28T12:24:07;3.20;1.00
6443;DHT22;3254;47.372;8.512;2023-02-28T12:26:45;3.30;1.00
6443;DHT22;3254;47.372;8.512;2023-02-28T12:29:25;3.50;1.00
6443;DHT22;3254;47.372;8.512;2023-02-28T12:34:25;3.70;1.00
6443;DHT22;3254;47.372;8.512;2023-02-28T12:36:53;3.80;1.00
6443;DHT22;3254;47.372;8.512;2023-02-28T12:39:23;3.80;1.00
6443;DHT22;3254;47.372;8.512;2023-02-28T12:42:03;3.60;1.00
6443;DHT22;3254;47.372;8.512;2023-02-28T12:44:46;3.70;1.00
6443;DHT22;3254;47.372;8.512;2023-02-28T12:47:16;3.60;1.00
6443;DHT22;3254;47.372;8.512;2023-02-28T12:49:56;3.30;1.00
6443;DHT22;3254;47.372;8.512;2023-02-28T12:55:19;3.50;1.00
6443;DHT22;3254;47.372;8.512;2023-02-28T12:57:53;3.50;1.00
6443;DHT22;3254;47.372;8.512;2023-02-28T13:00:24;3.70;1.00
6443;DHT22;3254;47.372;8.512;2023-02-28T13:09:04;3.70;1.00
6443;DHT22;3254;47.372;8.512;2023-02-28T13:11:38;3.50;1.00
6443;DHT22;3254;47.372;8.512;2023-02-28T13:14:16;3.50;1.00
6443;DHT22;3254;47.372;8.512;2023-02-28T13:19:30;3.90;1.00
6443;DHT22;3254;47.372;8.512;2023-02-28T13:21:57;4.10;1.00
6443;DHT22;3254;47.372;8.512;2023-02-28T13:24:44;4.20;1.00
6443;DHT22;3254;47.372;8.512;2023-02-28T13:29:49;3.40;1.00
6443;DHT22;3254;47.372;8.512;2023-02-28T13:48:01;3.80;1.00
6443;DHT22;3254;47.372;8.512;2023-02-28T13:50:38;3.70;1.00
6443;DHT22;3254;47.372;8.512;2023-02-28T13:58:53;3.80;1.00
6443;DHT22;3254;47.372;8.512;2023-02-28T14:01:42;3.60;1.00
6443;DHT22;3254;47.372;8.512;2023-02-28T14:06:57;3.30;1.00
6443;DHT22;3254;47.372;8.512;2023-02-28T14:09:41;3.30;1.00
6443;DHT22;3254;47.372;8.512;2023-02-28T14:15:39;3.10;1.00
6443;DHT22;3254;47.372;8.512;2023-02-28T14:18:32;3.00;1.00
6443;DHT22;3254;47.372;8.512;2023-02-28T14:21:28;3.00;1.00
6443;DHT22;3254;47.372;8.512;2023-02-28T14:24:15;3.00;1.00
6443;DHT22;3254;47.372;8.512;2023-02-28T14:32:51;3.00;1.00
6443;DHT22;3254;47.372;8.512;2023-02-28T14:37:51;2.80;1.00
6443;DHT22;3254;47.372;8.512;2023-02-28T14:42:56;2.70;1.00
6443;DHT22;3254;47.372;8.512;2023-02-28T14:45:22;2.60;1.00
6443;DHT22;3254;47.372;8.512;2023-02-28T14:47:50;2.50;1.00
6443;DHT22;3254;47.372;8.512;2023-02-28T14:50:22;2.50;1.00
6443;DHT22;3254;47.372;8.512;2023-02-28T14:52:51;2.50;1.00
6443;DHT22;3254;47.372;8.512;2023-02-28T14:55:19;2.50;1.00
6443;DHT22;3254;47.372;8.512;2023-02-28T14:58:02;2.50;1.00
6443;DHT22;3254;47.372;8.512;2023-02-28T15:00:31;2.50;1.00
6443;DHT22;3254;47.372;8.512;2023-02-28T15:02:58;2.60;1.00
6443;DHT22;3254;47.372;8.512;2023-02-28T15:05:34;2.70;1.00
6443;DHT22;3254;47.372;8.512;2023-02-28T15:08:06;2.60;1.00
6443;DHT22;3254;47.372;8.512;2023-02-28T15:10:35;2.50;1.00
6443;DHT22;3254;47.372;8.512;2023-02-28T15:13:06;2.30;1.00
6443;DHT22;3254;47.372;8.512;2023-02-28T15:21:21;2.30;1.00
6443;DHT22;3254;47.372;8.512;2023-02-28T15:24:01;2.40;1.00
6443;DHT22;3254;47.372;8.512;2023-02-28T15:26:37;2.30;1.00
6443;DHT22;3254;47.372;8.512;2023-02-28T15:29:07;2.10;1.00
6443;DHT22;3254;47.372;8.512;2023-02-28T15:31:37;2.20;1.00
6443;DHT22;3254;47.372;8.512;2023-02-28T15:34:12;2.30;1.00
6443;DHT22;3254;47.372;8.512;2023-02-28T15:36:41;2.20;1.00
6443;DHT22;3254;47.372;8.512;2023-02-28T15:39:24;2.10;1.00
6443;DHT22;3254;47.372;8.512;2023-02-28T15:41:52;1.90;1.00
6443;DHT22;3254;47.372;8.512;2023-02-28T15:44:26;1.90;1.00
6443;DHT22;3254;47.372;8.512;2023-02-28T15:46:59;1.70;1.00
6443;DHT22;3254;47.372;8.512;2023-02-28T15:49:29;1.70;1.00
6443;DHT22;3254;47.372;8.512;2023-02-28T15:51:59;1.70;1.00
6443;DHT22;3254;47.372;8.512;2023-02-28T15:54:32;1.70;1.00
6443;DHT22;3254;47.372;8.512;2023-02-28T15:57:15;1.80;1.00
6443;DHT22;3254;47.372;8.512;2023-02-28T15:59:49;1.80;1.00
6443;DHT22;3254;47.372;8.512;2023-02-28T16:02:18;1.80;1.00
6443;DHT22;3254;47.372;8.512;2023-02-28T16:05:22;1.80;1.00
6443;DHT22;3254;47.372;8.512;2023-02-28T16:07:57;1.70;1.00
6443;DHT22;3254;47.372;8.512;2023-02-28T16:10:25;1.70;1.00
6443;DHT22;3254;47.372;8.512;2023-02-28T16:12:56;1.60;1.00
6443;DHT22;3254;47.372;8.512;2023-02-28T16:15:23;1.60;1.00
6443;DHT22;3254;47.372;8.512;2023-02-28T16:17:52;1.60;1.00
6443;DHT22;3254;47.372;8.512;2023-02-28T16:20:23;1.50;1.00
6443;DHT22;3254;47.372;8.512;2023-02-28T16:22:50;1.50;1.00
6443;DHT22;3254;47.372;8.512;2023-02-28T16:25:18;1.60;1.00
6443;DHT22;3254;47.372;8.512;2023-02-28T16:27:47;1.60;1.00
6443;DHT22;3254;47.372;8.512;2023-02-28T16:30:25;1.60;1.00
6443;DHT22;3254;47.372;8.512;2023-02-28T16:32:53;1.60;1.00
6443;DHT22;3254;47.372;8.512;2023-02-28T16:35:20;1.60;1.00
6443;DHT22;3254;47.372;8.512;2023-02-28T16:37:45;1.60;1.00
6443;DHT22;3254;47.372;8.512;2023-02-28T16:40:20;1.50;1.00
6443;DHT22;3254;47.372;8.512;2023-02-28T16:42:48;1.50;1.00
6443;DHT22;3254;47.372;8.512;2023-02-28T16:45:20;1.40;1.00
6443;DHT22;3254;47.372;8.512;2023-02-28T16:47:46;1.40;1.00
6443;DHT22;3254;47.372;8.512;2023-02-28T16:50:27;1.40;1.00
6443;DHT22;3254;47.372;8.512;2023-02-28T16:52:54;1.40;1.00
6443;DHT22;3254;47.372;8.512;2023-02-28T16:55:20;1.50;1.00
6443;DHT22;3254;47.372;8.512;2023-02-28T16:58:04;1.40;1.00
6443;DHT22;3254;47.372;8.512;2023-02-28T17:00:31;1.40;1.00
6443;DHT22;3254;47.372;8.512;2023-02-28T17:02:57;1.40;1.00
6443;DHT22;3254;47.372;8.512;2023-02-28T17:05:25;1.40;1.00
6443;DHT22;3254;47.372;8.512;2023-02-28T17:07:51;1.40;1.00
6443;DHT22;3254;47.372;8.512;2023-02-28T17:10:18;1.40;1.00
6443;DHT22;3254;47.372;8.512;2023-02-28T17:12:44;1.30;1.00
6443;DHT22;3254;47.372;8.512;2023-02-28T17:15:11;1.30;1.00
6443;DHT22;3254;47.372;8.512;2023-02-28T17:17:38;1.40;1.00
6443;DHT22;3254;47.372;8.512;2023-02-28T17:20:04;1.30;1.00
6443;DHT22;3254;47.372;8.512;2023-02-28T17:22:31;1.30;1.00
6443;DHT22;3254;47.372;8.512;2023-02-28T17:24:57;1.30;1.00
6443;DHT22;3254;47.372;8.512;2023-02-28T17:27:24;1.30;1.00
6443;DHT22;3254;47.372;8.512;2023-02-28T17:29:50;1.30;1.00
6443;DHT22;3254;47.372;8.512;2023-02-28T17:32:16;1.30;1.00
6443;DHT22;3254;47.372;8.512;2023-02-28T17:34:41;1.30;1.00
6443;DHT22;3254;47.372;8.512;2023-02-28T17:37:08;1.30;1.00
6443;DHT22;3254;47.372;8.512;2023-02-28T17:39:34;1.20;1.00
6443;DHT22;3254;47.372;8.512;2023-02-28T17:41:59;1.30;1.00
6443;DHT22;3254;47.372;8.512;2023-02-28T17:44:25;1.30;1.00
6443;DHT22;3254;47.372;8.512;2023-02-28T17:46:51;1.30;1.00
6443;DHT22;3254;47.372;8.512;2023-02-28T17:49:18;1.30;1.00
6443;DHT22;3254;47.372;8.512;2023-02-28T17:51:44;1.30;1.00
6443;DHT22;3254;47.372;8.512;2023-02-28T17:54:10;1.30;1.00
6443;DHT22;3254;47.372;8.512;2023-02-28T17:56:36;1.20;1.00
6443;DHT22;3254;47.372;8.512;2023-02-28T17:59:02;1.30;1.00
6443;DHT22;3254;47.372;8.512;2023-02-28T18:01:27;1.20;1.00
6443;DHT22;3254;47.372;8.512;2023-02-28T18:03:54;1.20;1.00
6443;DHT22;3254;47.372;8.512;2023-02-28T18:06:28;1.10;1.00
6443;DHT22;3254;47.372;8.512;2023-02-28T18:08:56;1.20;1.00
6443;DHT22;3254;47.372;8.512;2023-02-28T18:11:23;1.20;1.00
6443;DHT22;3254;47.372;8.512;2023-02-28T18:13:52;1.20;1.00
6443;DHT22;3254;47.372;8.512;2023-02-28T18:16:18;1.10;1.00
6443;DHT22;3254;47.372;8.512;2023-02-28T18:18:44;1.10;1.00
6443;DHT22;3254;47.372;8.512;2023-02-28T18:21:12;1.10;1.00
6443;DHT22;3254;47.372;8.512;2023-02-28T18:23:38;1.10;1.00
6443;DHT22;3254;47.372;8.512;2023-02-28T18:26:15;1.10;1.00
6443;DHT22;3254;47.372;8.512;2023-02-28T18:28:42;1.00;1.00
6443;DHT22;3254;47.372;8.512;2023-02-28T18:31:10;1.10;1.00
6443;DHT22;3254;47.372;8.512;2023-02-28T18:33:36;1.00;1.00
6443;DHT22;3254;47.372;8.512;2023-02-28T18:36:02;1.00;1.00
6443;DHT22;3254;47.372;8.512;2023-02-28T18:38:28;0.90;1.00
6443;DHT22;3254;47.372;8.512;2023-02-28T18:40:59;0.90;1.00
6443;DHT22;3254;47.372;8.512;2023-02-28T18:43:26;0.90;1.00
6443;DHT22;3254;47.372;8.512;2023-02-28T18:45:52;0.90;1.00
6443;DHT22;3254;47.372;8.512;2023-02-28T18:48:18;0.80;1.00
6443;DHT22;3254;47.372;8.512;2023-02-28T18:50:45;0.80;1.00
6443;DHT22;3254;47.372;8.512;2023-02-28T18:53:11;0.80;1.00
6443;DHT22;3254;47.372;8.512;2023-02-28T18:55:37;0.80;1.00
6443;DHT22;3254;47.372;8.512;2023-02-28T18:58:03;0.80;1.00
6443;DHT22;3254;47.372;8.512;2023-02-28T19:00:29;0.80;1.00
6443;DHT22;3254;47.372;8.512;2023-02-28T19:02:55;0.80;1.00
6443;DHT22;3254;47.372;8.512;2023-02-28T19:05:20;0.90;1.00
6443;DHT22;3254;47.372;8.512;2023-02-28T19:07:46;0.90;1.00
6443;DHT22;3254;47.372;8.512;2023-02-28T19:10:12;0.90;1.00
6443;DHT22;3254;47.372;8.512;2023-02-28T19:12:38;0.90;1.00